createdAt,value
2017-08-29T00:01:15.260Z,16.40
2017-08-29T00:03:42.727Z,17.13
2017-08-29T00:06:10.315Z,16.50
2017-08-29T00:08:37.780Z,16.07
2017-08-29T00:11:05.253Z,16.00
2017-08-29T00:13:32.738Z,17.00
2017-08-29T00:16:00.208Z,16.80
2017-08-29T00:18:27.701Z,16.90
2017-08-29T00:20:55.165Z,16.73
2017-08-29T00:23:22.789Z,15.83
2017-08-29T00:25:50.345Z,16.00
2017-08-29T00:28:17.821Z,16.70
2017-08-29T00:30:45.292Z,15.13
2017-08-29T00:33:13.589Z,16.80
2017-08-29T00:35:41.071Z,16.40
2017-08-29T00:38:08.552Z,16.90
2017-08-29T00:40:36.031Z,15.43
2017-08-29T00:43:03.513Z,17.10
2017-08-29T00:45:31.073Z,17.13
2017-08-29T00:47:58.789Z,15.37
2017-08-29T00:50:26.264Z,15.50
2017-08-29T00:52:53.753Z,16.47
2017-08-29T00:55:21.223Z,16.67
2017-08-29T00:57:48.733Z,15.90
2017-08-29T01:00:16.209Z,16.20
2017-08-29T01:02:43.678Z,16.20
2017-08-29T01:05:11.169Z,16.70
2017-08-29T01:07:38.653Z,16.37
2017-08-29T01:10:06.586Z,16.57
2017-08-29T01:12:34.059Z,17.20
2017-08-29T01:15:01.540Z,14.50
2017-08-29T01:17:29.065Z,16.60
2017-08-29T01:19:56.535Z,14.80
2017-08-29T01:22:24.018Z,16.10
2017-08-29T01:24:51.493Z,14.70
2017-08-29T01:27:18.980Z,15.97
2017-08-29T01:29:46.444Z,15.60
2017-08-29T01:32:13.921Z,16.17
2017-08-29T01:34:41.405Z,14.90
2017-08-29T01:37:08.902Z,14.67
2017-08-29T01:39:36.383Z,15.30
2017-08-29T01:42:03.852Z,15.30
2017-08-29T01:44:31.321Z,14.63
2017-08-29T01:46:58.809Z,16.27
2017-08-29T01:49:26.337Z,14.93
2017-08-29T01:51:53.861Z,14.90
2017-08-29T01:54:21.347Z,15.40
2017-08-29T01:56:48.863Z,15.77
2017-08-29T01:59:16.378Z,14.60
2017-08-29T02:01:43.829Z,14.10
2017-08-29T02:04:11.308Z,15.57
2017-08-29T02:06:38.760Z,14.47
2017-08-29T02:09:06.242Z,14.20
2017-08-29T02:11:33.842Z,14.10
2017-08-29T02:14:01.321Z,14.80
2017-08-29T02:16:28.792Z,15.63
2017-08-29T02:18:56.257Z,15.03
2017-08-29T02:21:23.729Z,14.90
2017-08-29T02:23:51.206Z,15.23
2017-08-29T02:26:18.670Z,15.20
2017-08-29T02:28:46.176Z,16.30
2017-08-29T02:31:13.636Z,15.97
2017-08-29T02:33:41.106Z,15.80
2017-08-29T02:36:08.589Z,14.87
2017-08-29T02:38:36.070Z,15.70
2017-08-29T02:41:03.551Z,14.67
2017-08-29T02:43:31.030Z,15.97
2017-08-29T02:45:58.534Z,15.03
2017-08-29T02:48:26.004Z,14.80
2017-08-29T02:50:53.482Z,16.00
2017-08-29T02:53:20.951Z,15.57
2017-08-29T02:55:48.531Z,15.30
2017-08-29T02:58:16.009Z,15.17
2017-08-29T03:00:43.480Z,16.30
2017-08-29T03:03:10.965Z,16.53
2017-08-29T03:05:38.437Z,16.13
2017-08-29T03:08:06.015Z,16.10
2017-08-29T03:10:34.253Z,15.00
2017-08-29T03:13:01.722Z,15.10
2017-08-29T03:15:29.197Z,15.60
2017-08-29T03:17:56.663Z,15.50
2017-08-29T03:20:24.157Z,15.17
2017-08-29T03:22:51.745Z,16.23
2017-08-29T03:25:19.297Z,16.87
2017-08-29T03:27:46.809Z,16.63
2017-08-29T03:30:14.303Z,16.30
2017-08-29T03:32:41.773Z,16.60
2017-08-29T03:35:09.313Z,16.70
2017-08-29T03:37:36.794Z,16.20
2017-08-29T03:40:04.333Z,16.60
2017-08-29T03:42:31.805Z,17.67
2017-08-29T03:44:59.281Z,17.43
2017-08-29T03:47:27.489Z,16.47
2017-08-29T03:49:54.971Z,16.37
2017-08-29T03:52:22.466Z,18.30
2017-08-29T03:54:49.947Z,16.63
2017-08-29T03:57:17.411Z,16.43
2017-08-29T03:59:44.901Z,16.80
2017-08-29T04:02:12.361Z,15.70
2017-08-29T04:04:39.855Z,17.70
2017-08-29T04:07:07.320Z,17.10
2017-08-29T04:09:35.557Z,17.70
2017-08-29T04:12:03.065Z,17.70
2017-08-29T04:14:30.523Z,17.67
2017-08-29T04:16:57.985Z,17.60
2017-08-29T04:19:25.466Z,17.00
2017-08-29T04:21:52.929Z,16.57
2017-08-29T04:24:20.401Z,15.53
2017-08-29T04:26:47.894Z,17.20
2017-08-29T04:29:15.369Z,18.70
2017-08-29T04:31:42.895Z,16.70
2017-08-29T04:34:10.362Z,17.53
2017-08-29T04:36:37.834Z,16.03
2017-08-29T04:39:05.319Z,17.57
2017-08-29T04:41:32.940Z,17.50
2017-08-29T04:44:00.402Z,17.50
2017-08-29T04:46:27.888Z,17.00
2017-08-29T04:48:55.353Z,17.90
2017-08-29T04:51:22.861Z,16.93
2017-08-29T04:53:50.340Z,17.80
2017-08-29T04:56:17.821Z,17.27
2017-08-29T04:58:45.393Z,17.70
2017-08-29T05:01:12.870Z,18.90
2017-08-29T05:03:40.346Z,17.90
2017-08-29T05:06:07.817Z,17.83
2017-08-29T05:08:35.285Z,16.93
2017-08-29T05:11:02.875Z,17.10
2017-08-29T05:13:30.404Z,18.50
2017-08-29T05:15:57.885Z,16.50
2017-08-29T05:18:25.349Z,17.47
2017-08-29T05:20:52.838Z,16.27
2017-08-29T05:23:20.438Z,16.10
2017-08-29T05:25:47.915Z,16.50
2017-08-29T05:28:15.373Z,16.90
2017-08-29T05:30:42.853Z,17.87
2017-08-29T05:33:10.332Z,16.67
2017-08-29T05:35:38.809Z,15.90
2017-08-29T05:38:06.270Z,17.80
2017-08-29T05:40:33.742Z,17.63
2017-08-29T05:43:01.244Z,17.27
2017-08-29T05:45:28.940Z,18.67
2017-08-29T05:47:56.406Z,18.10
2017-08-29T05:50:23.893Z,18.60
2017-08-29T05:52:51.358Z,19.30
2017-08-29T05:55:18.901Z,18.03
2017-08-29T05:57:46.374Z,19.53
2017-08-29T06:00:13.847Z,19.27
2017-08-29T06:02:41.349Z,18.53
2017-08-29T06:05:08.974Z,19.37
2017-08-29T06:07:36.458Z,19.03
2017-08-29T06:10:03.929Z,18.57
2017-08-29T06:12:31.467Z,19.77
2017-08-29T06:14:59.039Z,20.10
2017-08-29T06:17:26.512Z,17.57
2017-08-29T06:19:54.117Z,18.90
2017-08-29T06:22:21.591Z,19.20
2017-08-29T06:24:49.091Z,18.00
2017-08-29T06:27:17.493Z,18.93
2017-08-29T06:29:44.981Z,19.17
2017-08-29T06:32:12.509Z,18.20
2017-08-29T06:34:39.985Z,19.30
2017-08-29T06:37:07.456Z,19.53
2017-08-29T06:39:34.921Z,19.67
2017-08-29T06:42:02.402Z,18.10
2017-08-29T06:44:29.862Z,18.80
2017-08-29T06:46:57.336Z,18.47
2017-08-29T06:49:24.797Z,19.27
2017-08-29T06:51:52.313Z,19.23
2017-08-29T06:54:19.789Z,20.20
2017-08-29T06:56:47.286Z,20.27
2017-08-29T06:59:14.790Z,20.60
2017-08-29T07:01:42.249Z,20.30
2017-08-29T07:04:09.717Z,18.00
2017-08-29T07:06:37.189Z,19.00
2017-08-29T07:09:05.590Z,19.53
2017-08-29T07:11:33.073Z,19.23
2017-08-29T07:14:00.818Z,19.70
2017-08-29T07:16:28.298Z,22.20
2017-08-29T07:18:55.769Z,21.60
2017-08-29T07:21:23.241Z,20.40
2017-08-29T07:23:50.700Z,21.80
2017-08-29T07:26:18.397Z,22.67
2017-08-29T07:28:45.877Z,20.67
2017-08-29T07:31:13.349Z,19.83
2017-08-29T07:33:40.849Z,20.17
2017-08-29T07:36:08.837Z,20.17
2017-08-29T07:38:36.309Z,20.57
2017-08-29T07:41:03.788Z,20.17
2017-08-29T07:43:31.271Z,20.00
2017-08-29T07:45:58.741Z,18.23
2017-08-29T07:48:26.218Z,18.50
2017-08-29T07:50:53.695Z,17.43
2017-08-29T07:53:21.164Z,18.17
2017-08-29T07:55:48.648Z,18.57
2017-08-29T07:58:16.122Z,17.50
2017-08-29T08:00:43.609Z,18.97
2017-08-29T08:03:11.375Z,18.37
2017-08-29T08:05:38.885Z,16.37
2017-08-29T08:08:06.352Z,15.63
2017-08-29T08:10:34.589Z,17.77
2017-08-29T08:13:02.073Z,16.97
2017-08-29T08:15:29.622Z,16.97
2017-08-29T08:17:57.103Z,18.20
2017-08-29T08:20:24.577Z,16.33
2017-08-29T08:22:52.061Z,17.27
2017-08-29T08:25:19.516Z,18.10
2017-08-29T08:27:47.074Z,17.20
2017-08-29T08:30:14.598Z,16.93
2017-08-29T08:32:42.141Z,16.30
2017-08-29T08:35:09.711Z,18.07
2017-08-29T08:37:38.043Z,18.47
2017-08-29T08:40:05.521Z,18.00
2017-08-29T08:42:32.989Z,16.70
2017-08-29T08:45:00.457Z,14.90
2017-08-29T08:47:27.918Z,16.73
2017-08-29T08:49:55.397Z,16.83
2017-08-29T08:52:22.897Z,17.17
2017-08-29T08:54:50.362Z,17.67
2017-08-29T08:57:17.845Z,15.77
2017-08-29T08:59:45.305Z,17.83
2017-08-29T09:02:12.791Z,16.97
2017-08-29T09:04:40.271Z,16.03
2017-08-29T09:07:07.769Z,16.20
2017-08-29T09:09:35.259Z,15.50
2017-08-29T09:12:03.246Z,16.70
2017-08-29T09:14:30.733Z,18.07
2017-08-29T09:16:58.202Z,15.53
2017-08-29T09:19:25.665Z,15.10
2017-08-29T09:21:53.165Z,13.83
2017-08-29T09:24:20.653Z,13.23
2017-08-29T09:26:48.145Z,14.30
2017-08-29T09:29:15.737Z,14.87
2017-08-29T09:31:43.263Z,13.50
2017-08-29T09:34:10.744Z,15.70
2017-08-29T09:36:38.205Z,12.90
2017-08-29T09:39:05.694Z,14.90
2017-08-29T09:41:33.233Z,17.20
2017-08-29T09:44:00.721Z,13.77
2017-08-29T09:46:28.202Z,13.60
2017-08-29T09:48:55.746Z,13.07
2017-08-29T09:51:23.260Z,13.60
2017-08-29T09:53:50.720Z,14.00
2017-08-29T09:56:18.196Z,13.90
2017-08-29T09:58:45.681Z,12.63
2017-08-29T10:01:13.149Z,11.67
2017-08-29T10:03:40.643Z,12.80
2017-08-29T10:06:08.144Z,12.57
2017-08-29T10:08:35.613Z,12.67
2017-08-29T10:11:03.080Z,15.03
2017-08-29T10:13:30.562Z,14.20
2017-08-29T10:15:58.029Z,12.13
2017-08-29T10:18:25.515Z,10.60
2017-08-29T10:20:53.010Z,10.67
2017-08-29T10:23:20.484Z,13.80
2017-08-29T10:25:47.973Z,14.07
2017-08-29T10:28:15.446Z,11.43
2017-08-29T10:30:42.907Z,12.50
2017-08-29T10:33:10.395Z,12.67
2017-08-29T10:35:37.868Z,11.50
2017-08-29T10:38:05.351Z,9.13
2017-08-29T10:40:32.810Z,11.90
2017-08-29T10:43:00.290Z,11.47
2017-08-29T10:45:27.773Z,12.13
2017-08-29T10:47:55.236Z,11.50
2017-08-29T10:50:22.772Z,12.80
2017-08-29T10:52:50.245Z,11.90
2017-08-29T10:55:17.734Z,12.63
2017-08-29T10:57:45.200Z,13.63
2017-08-29T11:00:12.701Z,11.37
2017-08-29T11:02:40.161Z,11.93
2017-08-29T11:05:07.646Z,11.03
2017-08-29T11:07:35.109Z,10.10
2017-08-29T11:10:02.647Z,12.23
2017-08-29T11:12:30.113Z,11.03
2017-08-29T11:14:57.581Z,10.70
2017-08-29T11:17:25.063Z,11.37
2017-08-29T11:19:52.529Z,11.60
2017-08-29T11:22:20.031Z,10.43
2017-08-29T11:24:47.494Z,10.30
2017-08-29T11:27:14.964Z,9.87
2017-08-29T11:29:42.441Z,10.97
2017-08-29T11:32:10.621Z,9.60
2017-08-29T11:34:38.115Z,9.40
2017-08-29T11:37:05.593Z,9.33
2017-08-29T11:39:33.103Z,9.73
2017-08-29T11:42:00.561Z,9.30
2017-08-29T11:44:28.040Z,9.80
2017-08-29T11:46:55.631Z,9.10
2017-08-29T11:49:23.256Z,8.23
2017-08-29T11:51:50.737Z,8.23
2017-08-29T11:54:18.196Z,8.93
2017-08-29T11:56:45.705Z,8.60
2017-08-29T11:59:13.185Z,7.23
2017-08-29T12:01:40.662Z,6.67
2017-08-29T12:04:08.113Z,8.67
2017-08-29T12:06:35.605Z,7.43
2017-08-29T12:09:03.070Z,8.27
2017-08-29T12:11:30.536Z,7.40
2017-08-29T12:13:58.105Z,7.60
2017-08-29T12:16:25.581Z,7.80
2017-08-29T12:18:53.057Z,7.80
2017-08-29T12:21:20.546Z,7.07
2017-08-29T12:23:48.033Z,7.50
2017-08-29T12:26:15.509Z,6.83
2017-08-29T12:28:43.622Z,6.80
2017-08-29T12:31:11.096Z,7.60
2017-08-29T12:33:38.577Z,7.10
2017-08-29T12:36:06.055Z,7.03
2017-08-29T12:38:33.516Z,7.50
2017-08-29T12:41:01.013Z,6.97
2017-08-29T12:43:28.481Z,7.70
2017-08-29T12:45:55.950Z,6.23
2017-08-29T12:48:23.637Z,7.60
2017-08-29T12:50:51.101Z,6.30
2017-08-29T12:53:18.565Z,7.80
2017-08-29T12:55:46.040Z,6.93
2017-08-29T12:58:13.517Z,6.73
2017-08-29T13:00:41.016Z,7.40
2017-08-29T13:03:08.487Z,7.03
2017-08-29T13:05:35.958Z,8.43
2017-08-29T13:08:03.425Z,7.93
2017-08-29T13:10:30.920Z,7.43
2017-08-29T13:12:58.418Z,7.60
2017-08-29T13:15:25.884Z,7.50
2017-08-29T13:17:53.424Z,7.93
2017-08-29T13:20:20.959Z,7.70
2017-08-29T13:22:48.428Z,8.10
2017-08-29T13:25:15.932Z,8.70
2017-08-29T13:27:43.412Z,9.17
2017-08-29T13:30:10.920Z,9.43
2017-08-29T13:32:38.389Z,9.40
2017-08-29T13:35:05.845Z,8.60
2017-08-29T13:37:33.369Z,9.20
2017-08-29T13:40:00.829Z,8.20
2017-08-29T13:42:28.317Z,8.43
2017-08-29T13:44:55.773Z,7.73
2017-08-29T13:47:23.245Z,8.53
2017-08-29T13:49:50.733Z,8.37
2017-08-29T13:52:18.202Z,8.50
2017-08-29T13:54:45.677Z,8.70
2017-08-29T13:57:13.156Z,8.40
2017-08-29T13:59:40.617Z,8.10
2017-08-29T14:02:08.177Z,7.93
2017-08-29T14:04:35.676Z,8.10
2017-08-29T14:07:03.133Z,8.13
2017-08-29T14:09:30.597Z,7.70
2017-08-29T14:11:58.189Z,7.73
2017-08-29T14:14:25.654Z,7.80
2017-08-29T14:16:53.151Z,8.07
2017-08-29T14:19:20.602Z,7.97
2017-08-29T14:21:48.089Z,9.03
2017-08-29T14:24:15.549Z,8.03
2017-08-29T14:26:43.214Z,7.67
2017-08-29T14:29:10.678Z,7.87
2017-08-29T14:31:38.141Z,6.83
2017-08-29T14:34:05.628Z,8.07
2017-08-29T14:36:33.088Z,8.13
2017-08-29T14:39:00.566Z,8.10
2017-08-29T14:41:28.044Z,8.10
2017-08-29T14:43:55.521Z,8.43
2017-08-29T14:46:34.653Z,8.53
2017-08-29T14:49:13.845Z,8.70
2017-08-29T14:51:41.317Z,8.10
2017-08-29T14:54:08.792Z,7.80
2017-08-29T14:56:36.278Z,8.80
2017-08-29T14:59:04.585Z,8.57
2017-08-29T15:01:32.037Z,9.10
2017-08-29T15:03:59.646Z,8.07
2017-08-29T15:06:27.109Z,8.33
2017-08-29T15:08:54.580Z,8.50
2017-08-29T15:11:22.172Z,8.60
2017-08-29T15:13:49.639Z,7.77
2017-08-29T15:16:17.121Z,7.00
2017-08-29T15:18:44.605Z,8.07
2017-08-29T15:21:12.807Z,7.43
2017-08-29T15:23:40.257Z,7.40
2017-08-29T15:26:07.752Z,7.97
2017-08-29T15:28:35.218Z,7.63
2017-08-29T15:31:02.679Z,7.37
2017-08-29T15:33:30.153Z,7.20
2017-08-29T15:35:57.633Z,7.60
2017-08-29T15:38:25.320Z,7.13
2017-08-29T15:40:52.784Z,7.43
2017-08-29T15:43:20.293Z,7.27
2017-08-29T15:45:47.755Z,7.53
2017-08-29T15:48:15.546Z,7.10
2017-08-29T15:50:43.014Z,7.03
2017-08-29T15:53:10.469Z,7.30
2017-08-29T15:55:37.976Z,6.87
2017-08-29T15:58:05.598Z,6.80
2017-08-29T16:00:33.131Z,7.20
2017-08-29T16:03:00.613Z,6.80
2017-08-29T16:05:28.069Z,7.47
2017-08-29T16:07:55.537Z,7.00
2017-08-29T16:10:22.990Z,6.60
2017-08-29T16:12:50.476Z,6.97
2017-08-29T16:15:18.087Z,7.20
2017-08-29T16:17:45.553Z,6.97
2017-08-29T16:20:13.025Z,7.90
2017-08-29T16:22:40.490Z,6.70
2017-08-29T16:25:07.996Z,7.30
2017-08-29T16:27:35.617Z,7.60
2017-08-29T16:30:03.089Z,7.60
2017-08-29T16:32:30.561Z,6.90
2017-08-29T16:34:58.169Z,7.63
2017-08-29T16:37:25.675Z,7.77
2017-08-29T16:39:53.141Z,7.10
2017-08-29T16:42:20.623Z,7.50
2017-08-29T16:44:48.193Z,7.87
2017-08-29T16:47:15.714Z,7.57
2017-08-29T16:49:43.192Z,7.00
2017-08-29T16:52:10.655Z,7.50
2017-08-29T16:54:38.161Z,7.43
2017-08-29T16:57:05.660Z,7.37
2017-08-29T16:59:33.134Z,7.43
2017-08-29T17:02:00.597Z,7.93
2017-08-29T17:04:28.057Z,7.90
2017-08-29T17:06:55.543Z,7.97
2017-08-29T17:09:23.051Z,7.53
2017-08-29T17:11:50.541Z,8.23
2017-08-29T17:14:18.002Z,8.63
2017-08-29T17:16:45.469Z,8.50
2017-08-29T17:19:12.937Z,7.27
2017-08-29T17:21:40.481Z,6.83
2017-08-29T17:24:07.961Z,7.20
2017-08-29T17:26:35.447Z,7.07
2017-08-29T17:29:02.948Z,7.03
2017-08-29T17:31:30.437Z,7.13
2017-08-29T17:33:57.924Z,7.20
2017-08-29T17:36:25.401Z,7.17
2017-08-29T17:38:53.425Z,7.90
2017-08-29T17:41:20.961Z,8.10
2017-08-29T17:43:48.469Z,7.77
2017-08-29T17:46:15.981Z,8.27
2017-08-29T17:48:43.444Z,7.57
2017-08-29T17:51:10.929Z,7.17
2017-08-29T17:53:38.403Z,8.10
2017-08-29T17:56:05.901Z,7.40
2017-08-29T17:58:33.441Z,7.30
2017-08-29T18:01:00.957Z,7.47
2017-08-29T18:03:28.442Z,7.37
2017-08-29T18:05:55.921Z,7.83
2017-08-29T18:08:23.419Z,6.07
2017-08-29T18:10:50.897Z,7.10
2017-08-29T18:13:18.382Z,6.83
2017-08-29T18:15:45.877Z,10.73
2017-08-29T18:18:13.370Z,7.00
2017-08-29T18:20:40.841Z,6.93
2017-08-29T18:23:08.376Z,7.00
2017-08-29T18:25:35.887Z,6.90
2017-08-29T18:28:03.382Z,6.20
2017-08-29T18:30:30.843Z,7.50
2017-08-29T18:32:58.379Z,11.00
2017-08-29T18:35:25.857Z,7.53
2017-08-29T18:37:53.315Z,7.90
2017-08-29T18:40:20.786Z,7.00
2017-08-29T18:42:48.696Z,6.97
2017-08-29T18:45:16.200Z,7.00
2017-08-29T18:47:43.799Z,7.50
2017-08-29T18:50:11.266Z,8.10
2017-08-29T18:52:38.750Z,8.00
2017-08-29T18:55:06.213Z,7.13
2017-08-29T18:57:33.746Z,7.50
2017-08-29T19:00:01.386Z,7.90
2017-08-29T19:02:28.928Z,7.77
2017-08-29T19:04:56.425Z,7.47
2017-08-29T19:07:23.938Z,8.10
2017-08-29T19:09:51.441Z,8.00
2017-08-29T19:12:18.919Z,8.17
2017-08-29T19:14:46.406Z,8.10
2017-08-29T19:17:13.988Z,7.90
2017-08-29T19:19:41.497Z,7.17
2017-08-29T19:22:08.973Z,8.00
2017-08-29T19:24:36.436Z,8.33
2017-08-29T19:27:03.935Z,8.10
2017-08-29T19:29:31.548Z,8.23
2017-08-29T19:31:59.047Z,7.20
2017-08-29T19:34:26.520Z,7.80
2017-08-29T19:36:53.982Z,7.37
2017-08-29T19:39:21.455Z,6.90
2017-08-29T19:41:48.923Z,8.17
2017-08-29T19:44:16.421Z,8.37
2017-08-29T19:46:43.908Z,8.10
2017-08-29T19:49:11.418Z,7.67
2017-08-29T19:51:38.926Z,7.53
2017-08-29T19:54:06.414Z,7.33
2017-08-29T19:56:33.905Z,8.33
2017-08-29T19:59:01.636Z,8.20
2017-08-29T20:01:29.154Z,7.87
2017-08-29T20:03:56.761Z,7.97
2017-08-29T20:06:24.309Z,7.73
2017-08-29T20:08:51.826Z,8.10
2017-08-29T20:11:19.313Z,8.40
2017-08-29T20:13:46.797Z,7.53
2017-08-29T20:16:14.314Z,8.70
2017-08-29T20:18:41.841Z,8.60
2017-08-29T20:21:09.296Z,8.20
2017-08-29T20:23:36.800Z,9.20
2017-08-29T20:26:04.285Z,7.97
2017-08-29T20:28:31.744Z,7.87
2017-08-29T20:30:59.237Z,7.63
2017-08-29T20:33:26.849Z,8.00
2017-08-29T20:35:54.363Z,8.50
2017-08-29T20:38:21.831Z,8.50
2017-08-29T20:40:49.321Z,8.10
2017-08-29T20:43:16.795Z,8.13
2017-08-29T20:45:44.284Z,7.93
2017-08-29T20:48:11.847Z,8.37
2017-08-29T20:50:39.329Z,8.10
2017-08-29T20:53:06.805Z,7.80
2017-08-29T20:55:34.291Z,8.40
2017-08-29T20:58:01.902Z,8.50
2017-08-29T21:00:29.404Z,8.20
2017-08-29T21:02:57.148Z,7.93
2017-08-29T21:05:24.639Z,8.50
2017-08-29T21:07:52.189Z,8.40
2017-08-29T21:10:19.664Z,9.20
2017-08-29T21:12:47.246Z,8.30
2017-08-29T21:15:14.748Z,8.03
2017-08-29T21:17:42.246Z,8.50
2017-08-29T21:20:10.087Z,8.20
2017-08-29T21:22:37.749Z,8.90
2017-08-29T21:25:05.395Z,8.77
2017-08-29T21:27:33.209Z,7.47
2017-08-29T21:30:00.732Z,8.67
2017-08-29T21:32:28.329Z,8.07
2017-08-29T21:34:55.822Z,8.27
2017-08-29T21:37:23.579Z,8.53
2017-08-29T21:39:51.062Z,8.47
2017-08-29T21:42:18.534Z,7.97
2017-08-29T21:44:46.055Z,8.57
2017-08-29T21:47:13.532Z,8.37
2017-08-29T21:49:41.037Z,8.40
2017-08-29T21:52:08.696Z,8.43
2017-08-29T21:54:36.429Z,8.27
2017-08-29T21:57:04.067Z,8.53
2017-08-29T21:59:31.554Z,8.57
2017-08-29T22:01:59.053Z,8.40
2017-08-29T22:04:26.672Z,8.03
2017-08-29T22:06:54.512Z,7.83
2017-08-29T22:09:22.008Z,7.87
2017-08-29T22:11:49.470Z,8.90
2017-08-29T22:14:17.739Z,9.40
2017-08-29T22:16:45.305Z,8.60
2017-08-29T22:19:12.920Z,9.00
2017-08-29T22:21:40.425Z,8.67
2017-08-29T22:24:07.942Z,8.13
2017-08-29T22:26:35.455Z,8.50
2017-08-29T22:29:02.942Z,8.00
2017-08-29T22:31:30.496Z,8.20
2017-08-29T22:33:57.958Z,8.80
2017-08-29T22:36:25.445Z,8.17
2017-08-29T22:38:53.124Z,8.70
2017-08-29T22:41:20.710Z,8.70
2017-08-29T22:43:48.214Z,8.47
2017-08-29T22:46:15.738Z,8.70
2017-08-29T22:48:43.223Z,8.20
2017-08-29T22:51:10.716Z,8.60
2017-08-29T22:53:38.198Z,8.07
2017-08-29T22:56:05.667Z,8.80
2017-08-29T22:58:33.150Z,8.30
2017-08-29T23:01:00.734Z,8.37
2017-08-29T23:03:28.373Z,8.80
2017-08-29T23:05:55.891Z,8.97
2017-08-29T23:08:23.372Z,8.03
2017-08-29T23:10:50.899Z,8.27
2017-08-29T23:13:18.426Z,9.13
2017-08-29T23:15:45.912Z,8.77
2017-08-29T23:18:13.395Z,8.40
2017-08-29T23:20:40.871Z,8.70
2017-08-29T23:23:08.414Z,8.53
2017-08-29T23:25:35.890Z,9.87
2017-08-29T23:28:03.399Z,8.30
2017-08-29T23:30:30.894Z,8.77
2017-08-29T23:32:58.496Z,9.40
2017-08-29T23:35:25.974Z,9.60
2017-08-29T23:37:53.459Z,9.17
2017-08-29T23:40:20.918Z,9.20
2017-08-29T23:42:48.397Z,8.73
2017-08-29T23:45:15.885Z,9.37
2017-08-29T23:47:43.357Z,8.23
2017-08-29T23:50:10.848Z,9.43
2017-08-29T23:52:38.361Z,9.07
2017-08-29T23:55:06.020Z,9.27
2017-08-29T23:57:33.490Z,9.70
